Sylmar, California
Current Conditions -  °F | °C
As of 3:51 AM on Thursday 18 Dec 2014 (Local Time) from KVNY Reporting Station
Few Clouds Few Clouds  
Wind Chill: 45°   Ceiling: Unl
Heat Index: 45°   Visibility: 10mi
Dew Point: 42°   Wind: 3mph
Humidity: 90%   Direction: 20°NNE
Pressure: 30.11"   Gusts: NA
Location:  34.31°N, 118.45°W
Report Text: KVNY 181151Z AUTO 02003KT 10SM FEW100 07/06 A3011 RMK AO2 SLP196 T00720056 10111 20072 50003
Loading
Personal Weather Stations






























Interactive Weather Map New forecast layout! Learn more

10-Day Weather Forecast

Advertisements
Track Severe Weather on mobile